createdAt,value
2018-02-18T00:00:34.809Z,12.23
2018-02-18T00:03:02.423Z,12.63
2018-02-18T00:05:30.076Z,13.20
2018-02-18T00:07:57.773Z,12.10
2018-02-18T00:10:26.153Z,13.52
2018-02-18T00:12:54.577Z,13.07
2018-02-18T00:15:22.246Z,13.48
2018-02-18T00:17:50.633Z,13.18
2018-02-18T00:20:19.059Z,13.43
2018-02-18T00:22:46.669Z,17.02
2018-02-18T00:25:14.301Z,13.32
2018-02-18T00:27:41.937Z,13.77
2018-02-18T00:30:10.364Z,14.70
2018-02-18T00:32:37.982Z,13.85
2018-02-18T00:35:05.669Z,14.30
2018-02-18T00:37:33.292Z,15.32
2018-02-18T00:40:00.892Z,14.52
2018-02-18T00:42:28.575Z,15.75
2018-02-18T00:44:56.177Z,16.98
2018-02-18T00:47:24.564Z,16.95
2018-02-18T00:49:52.184Z,14.75
2018-02-18T00:52:20.597Z,15.95
2018-02-18T00:54:48.215Z,14.27
2018-02-18T00:57:15.848Z,14.93
2018-02-18T00:59:44.219Z,15.63
2018-02-18T01:02:12.579Z,15.30
2018-02-18T01:04:41.004Z,17.33
2018-02-18T01:07:08.600Z,14.80
2018-02-18T01:09:36.204Z,15.38
2018-02-18T01:12:03.833Z,13.95
2018-02-18T01:14:31.461Z,15.52
2018-02-18T01:16:59.104Z,16.85
2018-02-18T01:19:26.705Z,15.20
2018-02-18T01:21:55.076Z,14.73
2018-02-18T01:24:22.716Z,14.95
2018-02-18T01:26:50.339Z,15.90
2018-02-18T01:29:17.936Z,14.02
2018-02-18T01:31:45.589Z,15.82
2018-02-18T01:34:13.189Z,16.37
2018-02-18T01:36:40.811Z,16.65
2018-02-18T01:39:08.436Z,16.83
2018-02-18T01:41:36.032Z,16.62
2018-02-18T01:44:03.652Z,15.63
2018-02-18T01:46:31.244Z,15.02
2018-02-18T01:48:59.636Z,15.02
2018-02-18T01:51:27.232Z,15.30
2018-02-18T01:53:54.866Z,15.45
2018-02-18T01:56:22.473Z,17.40
2018-02-18T01:58:50.105Z,14.70
2018-02-18T02:01:18.473Z,15.70
2018-02-18T02:03:46.076Z,16.27
2018-02-18T02:06:13.724Z,15.27
2018-02-18T02:08:41.327Z,16.48
2018-02-18T02:11:08.956Z,14.98
2018-02-18T02:13:36.554Z,15.85
2018-02-18T02:16:04.178Z,15.25
2018-02-18T02:18:31.782Z,18.83
2018-02-18T02:21:00.163Z,16.95
2018-02-18T02:23:27.789Z,16.08
2018-02-18T02:25:56.157Z,18.67
2018-02-18T02:28:24.552Z,17.67
2018-02-18T02:30:52.156Z,15.45
2018-02-18T02:33:19.805Z,17.25
2018-02-18T02:35:47.412Z,17.02
2018-02-18T02:38:15.021Z,16.92
2018-02-18T02:40:42.661Z,17.37
2018-02-18T02:43:11.019Z,19.15
2018-02-18T02:45:39.386Z,19.67
2018-02-18T02:48:07.792Z,19.20
2018-02-18T02:50:35.421Z,21.05
2018-02-18T02:53:03.065Z,20.15
2018-02-18T02:55:30.669Z,18.42
2018-02-18T02:57:58.628Z,19.42
2018-02-18T03:00:27.012Z,17.52
2018-02-18T03:02:55.412Z,18.85
2018-02-18T03:05:23.008Z,18.17
2018-02-18T03:07:50.745Z,18.90
2018-02-18T03:10:18.373Z,18.60
2018-02-18T03:12:46.008Z,19.40
2018-02-18T03:15:13.604Z,22.00
2018-02-18T03:17:41.976Z,21.75
2018-02-18T03:20:10.369Z,21.20
2018-02-18T03:22:37.972Z,19.30
2018-02-18T03:25:06.364Z,23.25
2018-02-18T03:27:34.057Z,19.30
2018-02-18T03:30:01.682Z,18.87
2018-02-18T03:32:29.284Z,18.40
2018-02-18T03:34:57.676Z,20.10
2018-02-18T03:37:25.295Z,19.25
2018-02-18T03:39:52.916Z,22.42
2018-02-18T03:42:20.544Z,20.00
2018-02-18T03:44:48.144Z,19.83
2018-02-18T03:47:16.565Z,19.70
2018-02-18T03:49:44.163Z,22.25
2018-02-18T03:52:11.768Z,22.73
2018-02-18T03:54:39.398Z,22.02
2018-02-18T03:57:07.001Z,20.27
2018-02-18T03:59:34.716Z,22.33
2018-02-18T04:02:03.089Z,20.27
2018-02-18T04:04:31.466Z,21.35
2018-02-18T04:06:59.852Z,19.75
2018-02-18T04:09:27.448Z,23.98
2018-02-18T04:11:55.092Z,20.55
2018-02-18T04:14:22.696Z,23.98
2018-02-18T04:16:50.320Z,21.60
2018-02-18T04:19:18.717Z,20.10
2018-02-18T04:21:46.341Z,24.15
2018-02-18T04:24:13.964Z,24.55
2018-02-18T04:26:42.323Z,23.55
2018-02-18T04:29:09.948Z,21.10
2018-02-18T04:31:37.544Z,23.62
2018-02-18T04:34:05.144Z,23.10
2018-02-18T04:36:32.785Z,22.15
2018-02-18T04:39:00.380Z,20.80
2018-02-18T04:41:27.988Z,23.15
2018-02-18T04:43:55.632Z,20.40
2018-02-18T04:46:23.227Z,23.42
2018-02-18T04:48:50.828Z,21.92
2018-02-18T04:51:18.470Z,22.95
2018-02-18T04:53:46.069Z,22.48
2018-02-18T04:56:13.664Z,20.70
2018-02-18T04:58:41.304Z,24.27
2018-02-18T05:01:08.899Z,18.80
2018-02-18T05:03:36.500Z,23.40
2018-02-18T05:06:04.164Z,21.70
2018-02-18T05:08:32.559Z,22.35
2018-02-18T05:11:00.164Z,23.70
2018-02-18T05:13:27.759Z,23.75
2018-02-18T05:15:55.379Z,22.15
2018-02-18T05:18:23.037Z,21.23
2018-02-18T05:20:51.413Z,24.17
2018-02-18T05:23:19.010Z,26.15
2018-02-18T05:25:46.616Z,22.00
2018-02-18T05:28:14.241Z,22.05
2018-02-18T05:30:41.880Z,22.37
2018-02-18T05:33:10.245Z,22.98
2018-02-18T05:35:38.600Z,23.08
2018-02-18T05:38:06.995Z,22.95
2018-02-18T05:40:36.252Z,22.23
2018-02-18T05:43:04.641Z,22.50
2018-02-18T05:45:32.236Z,20.50
2018-02-18T05:47:59.836Z,23.90
2018-02-18T05:50:27.463Z,23.52
2018-02-18T05:52:55.167Z,23.70
2018-02-18T05:55:22.800Z,22.20
2018-02-18T05:57:50.400Z,19.65
2018-02-18T06:00:18.936Z,20.75
2018-02-18T06:02:46.532Z,23.20
2018-02-18T06:05:14.172Z,24.75
2018-02-18T06:07:41.773Z,21.25
2018-02-18T06:10:09.384Z,21.23
2018-02-18T06:12:37.013Z,21.70
2018-02-18T06:15:04.618Z,23.27
2018-02-18T06:17:32.262Z,23.02
2018-02-18T06:19:59.864Z,23.20
2018-02-18T06:22:27.469Z,23.92
2018-02-18T06:24:55.101Z,24.30
2018-02-18T06:27:22.979Z,20.52
2018-02-18T06:29:51.345Z,21.83
2018-02-18T06:32:19.741Z,21.50
2018-02-18T06:34:47.340Z,21.48
2018-02-18T06:37:14.940Z,27.15
2018-02-18T06:39:42.561Z,22.83
2018-02-18T06:42:10.204Z,25.73
2018-02-18T06:44:37.810Z,21.62
2018-02-18T06:47:05.415Z,20.55
2018-02-18T06:49:33.048Z,20.90
2018-02-18T06:52:00.705Z,24.30
2018-02-18T06:54:28.307Z,20.58
2018-02-18T06:56:56.060Z,24.50
2018-02-18T06:59:23.667Z,22.77
2018-02-18T07:01:51.332Z,21.95
2018-02-18T07:04:18.928Z,21.23
2018-02-18T07:06:46.529Z,21.45
2018-02-18T07:09:14.157Z,20.27
2018-02-18T07:11:41.756Z,21.00
2018-02-18T07:14:10.144Z,21.35
2018-02-18T07:16:37.739Z,19.90
2018-02-18T07:19:05.368Z,25.20
2018-02-18T07:21:32.960Z,25.35
2018-02-18T07:24:01.361Z,22.10
2018-02-18T07:26:28.960Z,20.02
2018-02-18T07:28:57.360Z,21.77
2018-02-18T07:31:25.041Z,23.62
2018-02-18T07:33:52.635Z,23.55
2018-02-18T07:36:21.033Z,23.83
2018-02-18T07:38:48.628Z,25.88
2018-02-18T07:41:18.036Z,23.90
2018-02-18T07:43:45.639Z,24.30
2018-02-18T07:46:13.260Z,20.88
2018-02-18T07:48:40.856Z,23.27
2018-02-18T07:51:09.266Z,25.27
2018-02-18T07:53:36.863Z,21.75
2018-02-18T07:56:04.469Z,22.05
2018-02-18T07:58:32.109Z,21.40
2018-02-18T08:00:59.714Z,20.08
2018-02-18T08:03:28.081Z,19.60
2018-02-18T08:05:56.476Z,22.35
2018-02-18T08:08:24.100Z,21.45
2018-02-18T08:10:52.704Z,20.08
2018-02-18T08:13:20.296Z,23.27
2018-02-18T08:15:48.689Z,23.42
2018-02-18T08:18:16.292Z,22.08
2018-02-18T08:20:43.920Z,23.83
2018-02-18T08:23:11.522Z,25.33
2018-02-18T08:25:39.131Z,25.05
2018-02-18T08:28:06.764Z,23.38
2018-02-18T08:30:34.369Z,22.75
2018-02-18T08:33:01.991Z,21.30
2018-02-18T08:35:30.355Z,23.08
2018-02-18T08:37:58.792Z,21.58
2018-02-18T08:40:26.393Z,23.05
2018-02-18T08:42:54.036Z,25.40
2018-02-18T08:45:21.636Z,19.25
2018-02-18T08:47:49.236Z,23.33
2018-02-18T08:50:16.860Z,20.92
2018-02-18T08:52:44.465Z,20.02
2018-02-18T08:55:12.092Z,20.73
2018-02-18T08:57:44.823Z,24.52
2018-02-18T09:00:16.470Z,22.98
2018-02-18T09:02:44.313Z,21.50
2018-02-18T09:05:11.917Z,26.05
2018-02-18T09:07:39.540Z,21.30
2018-02-18T09:10:07.276Z,24.75
2018-02-18T09:12:35.886Z,23.15
2018-02-18T09:15:04.403Z,26.17
2018-02-18T09:17:32.009Z,22.52
2018-02-18T09:19:59.637Z,23.87
2018-02-18T09:22:27.272Z,18.77
2018-02-18T09:24:54.872Z,22.10
2018-02-18T09:27:23.261Z,21.83
2018-02-18T09:29:51.238Z,21.70
2018-02-18T09:32:18.905Z,20.35
2018-02-18T09:34:47.320Z,21.50
2018-02-18T09:37:14.948Z,23.12
2018-02-18T09:39:43.340Z,25.12
2018-02-18T09:42:10.988Z,20.45
2018-02-18T09:44:38.676Z,23.42
2018-02-18T09:47:06.322Z,22.02
2018-02-18T09:49:34.913Z,24.00
2018-02-18T09:52:03.384Z,23.95
2018-02-18T09:54:31.825Z,24.00
2018-02-18T09:56:59.472Z,23.25
2018-02-18T09:59:27.111Z,24.48
2018-02-18T10:01:54.725Z,27.40
2018-02-18T10:04:22.353Z,27.75
2018-02-18T10:06:49.956Z,26.15
2018-02-18T10:09:17.601Z,26.90
2018-02-18T10:11:45.200Z,25.02
2018-02-18T10:14:12.801Z,22.75
2018-02-18T10:16:40.428Z,23.67
2018-02-18T10:19:08.075Z,28.87
2018-02-18T10:21:35.757Z,25.70
2018-02-18T10:24:04.345Z,27.90
2018-02-18T10:26:31.990Z,25.15
2018-02-18T10:29:01.858Z,28.12
2018-02-18T10:31:29.528Z,26.73
2018-02-18T10:33:57.904Z,24.70
2018-02-18T10:36:26.268Z,26.30
2018-02-18T10:38:53.970Z,23.65
2018-02-18T10:41:25.418Z,22.77
2018-02-18T10:43:53.110Z,23.25
2018-02-18T10:46:20.735Z,26.50
2018-02-18T10:48:49.176Z,26.58
2018-02-18T10:51:16.921Z,24.45
2018-02-18T10:53:44.778Z,26.67
2018-02-18T10:56:12.628Z,27.65
2018-02-18T10:58:41.113Z,23.67
2018-02-18T11:01:09.517Z,23.48
2018-02-18T11:03:37.120Z,25.60
2018-02-18T11:06:04.787Z,25.27
2018-02-18T11:08:32.393Z,28.33
2018-02-18T11:11:00.000Z,23.23
2018-02-18T11:13:27.638Z,27.67
2018-02-18T11:15:55.540Z,22.33
2018-02-18T11:18:24.088Z,22.33
2018-02-18T11:20:51.791Z,21.80
2018-02-18T11:23:19.476Z,21.50
2018-02-18T11:25:47.073Z,22.80
2018-02-18T11:28:15.467Z,24.63
2018-02-18T11:30:43.077Z,23.98
2018-02-18T11:33:10.700Z,25.02
2018-02-18T11:35:38.369Z,23.35
2018-02-18T11:38:06.015Z,23.73
2018-02-18T11:40:33.763Z,23.67
2018-02-18T11:43:02.161Z,23.48
2018-02-18T11:45:29.788Z,22.80
2018-02-18T11:47:58.184Z,20.15
2018-02-18T11:50:25.861Z,23.87
2018-02-18T11:52:53.500Z,26.15
2018-02-18T11:55:21.185Z,24.85
2018-02-18T11:57:48.821Z,23.25
2018-02-18T12:00:16.420Z,22.40
2018-02-18T12:02:44.070Z,28.62
2018-02-18T12:05:11.680Z,24.45
2018-02-18T12:07:40.050Z,27.87
2018-02-18T12:10:08.440Z,27.80
2018-02-18T12:12:36.036Z,24.98
2018-02-18T12:15:03.666Z,22.62
2018-02-18T12:17:31.268Z,24.77
2018-02-18T12:19:58.904Z,23.75
2018-02-18T12:22:27.395Z,22.95
2018-02-18T12:24:55.025Z,23.02
2018-02-18T12:27:22.677Z,21.85
2018-02-18T12:29:50.378Z,21.85
2018-02-18T12:32:18.487Z,22.48
2018-02-18T12:34:46.095Z,24.75
2018-02-18T12:37:13.721Z,22.10
2018-02-18T12:39:41.324Z,24.60
2018-02-18T12:42:08.968Z,24.33
2018-02-18T12:44:36.575Z,24.60
2018-02-18T12:47:04.176Z,24.08
2018-02-18T12:49:31.808Z,22.98
2018-02-18T12:51:59.412Z,20.65
2018-02-18T12:54:27.052Z,23.62
2018-02-18T12:56:54.671Z,24.45
2018-02-18T12:59:22.316Z,25.85
2018-02-18T13:01:49.916Z,23.92
2018-02-18T13:04:17.512Z,24.73
2018-02-18T13:06:45.143Z,22.05
2018-02-18T13:09:12.748Z,20.50
2018-02-18T13:11:40.348Z,19.30
2018-02-18T13:14:07.988Z,19.85
2018-02-18T13:16:35.596Z,21.00
2018-02-18T13:19:03.960Z,17.80
2018-02-18T13:21:32.360Z,20.05
2018-02-18T13:23:59.988Z,20.08
2018-02-18T13:26:27.586Z,19.92
2018-02-18T13:28:55.218Z,19.95
2018-02-18T13:31:22.849Z,19.58
2018-02-18T13:33:50.457Z,22.52
2018-02-18T13:36:18.852Z,19.40
2018-02-18T13:38:46.448Z,21.62
2018-02-18T13:41:14.877Z,21.87
2018-02-18T13:43:42.500Z,23.65
2018-02-18T13:46:10.108Z,23.52
2018-02-18T13:48:38.492Z,21.95
2018-02-18T13:51:06.901Z,20.35
2018-02-18T13:53:34.496Z,20.33
2018-02-18T13:56:02.100Z,20.05
2018-02-18T13:58:29.724Z,20.27
2018-02-18T14:00:57.317Z,21.12
2018-02-18T14:03:24.954Z,19.40
2018-02-18T14:05:52.557Z,18.30
2018-02-18T14:08:20.160Z,20.85
2018-02-18T14:10:47.788Z,20.85
2018-02-18T14:13:15.380Z,21.50
2018-02-18T14:15:43.749Z,25.27
2018-02-18T14:18:12.139Z,23.23
2018-02-18T14:20:39.740Z,23.98
2018-02-18T14:23:08.136Z,23.62
2018-02-18T14:25:35.845Z,20.37
2018-02-18T14:28:03.493Z,24.05
2018-02-18T14:30:31.100Z,24.50
2018-02-18T14:32:58.704Z,28.98
2018-02-18T14:35:27.088Z,30.70
2018-02-18T14:37:54.693Z,31.30
2018-02-18T14:40:22.341Z,27.45
2018-02-18T14:43:01.747Z,26.05
2018-02-18T14:45:41.280Z,30.33
2018-02-18T14:48:20.673Z,31.98
2018-02-18T14:51:00.117Z,29.73
2018-02-18T14:53:39.665Z,31.12
2018-02-18T14:56:17.033Z,31.83
2018-02-18T14:58:44.634Z,33.35
2018-02-18T15:01:12.236Z,32.78
2018-02-18T15:03:40.635Z,32.00
2018-02-18T15:06:08.240Z,32.72
2018-02-18T15:08:35.862Z,33.72
2018-02-18T15:11:03.461Z,31.52
2018-02-18T15:13:31.088Z,33.80
2018-02-18T15:15:59.457Z,32.00
2018-02-18T15:18:27.860Z,31.85
2018-02-18T15:20:55.460Z,31.83
2018-02-18T15:23:23.905Z,30.15
2018-02-18T15:25:51.524Z,30.15
2018-02-18T15:28:19.124Z,27.95
2018-02-18T15:30:47.528Z,26.70
2018-02-18T15:33:15.130Z,26.25
2018-02-18T15:35:43.503Z,28.45
2018-02-18T15:38:11.896Z,26.20
2018-02-18T15:40:39.500Z,28.58
2018-02-18T15:43:07.134Z,27.30
2018-02-18T15:45:34.748Z,30.45
2018-02-18T15:48:02.388Z,30.98
2018-02-18T15:50:30.071Z,30.23
2018-02-18T15:52:57.840Z,30.25
2018-02-18T15:55:26.251Z,31.33
2018-02-18T15:57:54.041Z,27.42
2018-02-18T16:00:21.696Z,31.27
2018-02-18T16:02:49.461Z,25.75
2018-02-18T16:05:17.934Z,30.70
2018-02-18T16:07:45.558Z,30.52
2018-02-18T16:10:13.200Z,32.00
2018-02-18T16:12:40.894Z,30.75
2018-02-18T16:15:08.517Z,27.08
2018-02-18T16:17:36.937Z,28.10
2018-02-18T16:20:04.533Z,30.48
2018-02-18T16:22:32.925Z,31.87
2018-02-18T16:25:00.549Z,28.25
2018-02-18T16:27:28.181Z,30.37
2018-02-18T16:29:56.553Z,31.15
2018-02-18T16:32:24.921Z,32.38
2018-02-18T16:34:52.562Z,27.77
2018-02-18T16:37:20.947Z,29.05
2018-02-18T16:39:48.577Z,28.52
2018-02-18T16:42:18.283Z,28.87
2018-02-18T16:44:45.961Z,28.45
2018-02-18T16:47:13.599Z,28.87
2018-02-18T16:49:41.219Z,28.92
2018-02-18T16:52:14.273Z,29.17
2018-02-18T16:54:42.152Z,32.45
2018-02-18T16:57:09.792Z,29.83
2018-02-18T16:59:37.402Z,32.47
2018-02-18T17:02:05.008Z,33.83
2018-02-18T17:04:32.636Z,27.35
2018-02-18T17:07:00.233Z,28.85
2018-02-18T17:09:27.875Z,27.52
2018-02-18T17:11:55.484Z,30.50
2018-02-18T17:14:23.080Z,31.77
2018-02-18T17:16:50.717Z,32.97
2018-02-18T17:19:18.308Z,33.05
2018-02-18T17:21:45.905Z,31.52
2018-02-18T17:24:13.547Z,31.65
2018-02-18T17:26:41.148Z,32.47
2018-02-18T17:29:08.757Z,30.15
2018-02-18T17:31:36.384Z,30.70
2018-02-18T17:34:03.980Z,32.00
2018-02-18T17:36:32.372Z,32.47
2018-02-18T17:38:59.992Z,32.25
2018-02-18T17:41:31.755Z,33.45
2018-02-18T17:43:59.594Z,28.08
2018-02-18T17:46:27.221Z,31.27
2018-02-18T17:48:55.608Z,30.02
2018-02-18T17:51:23.240Z,30.23
2018-02-18T17:53:51.632Z,31.12
2018-02-18T17:56:19.268Z,32.00
2018-02-18T17:58:47.632Z,28.12
2018-02-18T18:01:15.261Z,27.25
2018-02-18T18:03:43.628Z,26.00
2018-02-18T18:06:12.037Z,24.50
2018-02-18T18:08:39.637Z,24.02
2018-02-18T18:11:08.006Z,24.83
2018-02-18T18:13:35.686Z,25.73
2018-02-18T18:16:03.286Z,27.33
2018-02-18T18:18:30.916Z,24.80
2018-02-18T18:20:58.528Z,24.12
2018-02-18T18:23:26.178Z,23.90
2018-02-18T18:25:53.792Z,24.00
2018-02-18T18:28:21.406Z,21.95
2018-02-18T18:30:49.045Z,23.42
2018-02-18T18:33:16.668Z,23.08
2018-02-18T18:35:44.272Z,24.20
2018-02-18T18:38:12.667Z,22.10
2018-02-18T18:40:40.326Z,22.50
2018-02-18T18:43:07.912Z,21.33
2018-02-18T18:45:36.346Z,21.35
2018-02-18T18:48:04.044Z,22.10
2018-02-18T18:50:31.672Z,20.77
2018-02-18T18:52:59.399Z,20.05
2018-02-18T18:55:27.029Z,20.50
2018-02-18T18:57:54.641Z,19.42
2018-02-18T19:00:22.844Z,21.17
2018-02-18T19:02:50.465Z,21.75
2018-02-18T19:05:18.061Z,20.58
2018-02-18T19:07:45.686Z,22.15
2018-02-18T19:10:13.362Z,23.00
2018-02-18T19:12:41.754Z,20.15
2018-02-18T19:15:09.380Z,20.33
2018-02-18T19:17:40.993Z,22.20
2018-02-18T19:20:09.416Z,21.70
2018-02-18T19:22:37.016Z,20.55
2018-02-18T19:25:05.393Z,16.87
2018-02-18T19:27:37.462Z,19.25
2018-02-18T19:30:05.413Z,18.58
2018-02-18T19:32:33.047Z,19.80
2018-02-18T19:35:01.431Z,20.88
2018-02-18T19:37:29.076Z,26.45
2018-02-18T19:39:56.745Z,24.80
2018-02-18T19:42:24.352Z,25.62
2018-02-18T19:44:52.715Z,27.87
2018-02-18T19:47:21.109Z,25.00
2018-02-18T19:49:48.720Z,29.25
2018-02-18T19:52:16.364Z,21.70
2018-02-18T19:54:43.965Z,23.65
2018-02-18T19:57:11.593Z,21.55
2018-02-18T19:59:39.237Z,24.23
2018-02-18T20:02:06.851Z,23.10
2018-02-18T20:04:35.254Z,22.25
2018-02-18T20:07:02.856Z,23.20
2018-02-18T20:09:30.482Z,20.85
2018-02-18T20:11:58.077Z,20.20
2018-02-18T20:14:25.715Z,20.12
2018-02-18T20:16:54.088Z,21.17
2018-02-18T20:19:21.699Z,20.55
2018-02-18T20:21:49.325Z,21.30
2018-02-18T20:24:16.925Z,19.98
2018-02-18T20:26:44.556Z,19.95
2018-02-18T20:29:12.924Z,19.05
2018-02-18T20:31:41.312Z,18.70
2018-02-18T20:34:08.912Z,19.87
2018-02-18T20:36:36.509Z,19.73
2018-02-18T20:39:04.978Z,20.75
2018-02-18T20:41:35.629Z,20.73
2018-02-18T20:44:04.145Z,20.37
2018-02-18T20:46:31.773Z,19.40
2018-02-18T20:49:00.145Z,17.12
2018-02-18T20:51:28.587Z,16.77
2018-02-18T20:53:56.204Z,18.58
2018-02-18T20:56:23.855Z,17.55
2018-02-18T20:58:51.456Z,17.87
2018-02-18T21:01:19.088Z,18.25
2018-02-18T21:03:46.713Z,17.55
2018-02-18T21:06:14.324Z,18.15
2018-02-18T21:08:41.948Z,18.77
2018-02-18T21:11:10.269Z,19.20
2018-02-18T21:13:37.972Z,17.87
2018-02-18T21:16:05.668Z,17.37
2018-02-18T21:18:33.308Z,17.60
2018-02-18T21:21:00.908Z,16.83
2018-02-18T21:23:28.517Z,19.77
2018-02-18T21:25:56.152Z,19.70
2018-02-18T21:28:23.765Z,18.55
2018-02-18T21:30:51.413Z,22.40
2018-02-18T21:33:19.016Z,20.17
2018-02-18T21:35:58.117Z,19.20
2018-02-18T21:38:25.708Z,19.00
2018-02-18T21:40:53.310Z,19.30
2018-02-18T21:43:20.938Z,19.80
2018-02-18T21:45:48.537Z,19.30
2018-02-18T21:48:16.163Z,17.67
2018-02-18T21:50:44.528Z,17.25
2018-02-18T21:53:12.932Z,17.27
2018-02-18T21:55:40.528Z,16.15
2018-02-18T21:58:08.128Z,17.40
2018-02-18T22:00:35.764Z,15.30
2018-02-18T22:03:03.361Z,16.95
2018-02-18T22:05:30.959Z,14.43
2018-02-18T22:07:58.589Z,15.45
2018-02-18T22:10:26.212Z,14.82
2018-02-18T22:12:53.841Z,16.58
2018-02-18T22:15:21.464Z,17.37
2018-02-18T22:17:49.061Z,17.50
2018-02-18T22:20:17.456Z,17.50
2018-02-18T22:22:45.065Z,16.17
2018-02-18T22:25:13.432Z,20.05
2018-02-18T22:27:41.073Z,17.37
2018-02-18T22:30:09.460Z,16.95
2018-02-18T22:32:37.853Z,19.42
2018-02-18T22:35:05.446Z,17.00
2018-02-18T22:37:33.857Z,18.05
2018-02-18T22:40:01.461Z,19.90
2018-02-18T22:42:29.828Z,19.00
2018-02-18T22:44:58.258Z,18.27
2018-02-18T22:47:25.849Z,18.17
2018-02-18T22:49:53.596Z,17.87
2018-02-18T22:52:21.199Z,17.80
2018-02-18T22:54:48.824Z,18.50
2018-02-18T22:57:16.500Z,15.80
2018-02-18T22:59:44.145Z,17.50
2018-02-18T23:02:11.735Z,18.20
2018-02-18T23:04:39.331Z,16.17
2018-02-18T23:07:07.784Z,15.90
2018-02-18T23:09:35.380Z,17.48
2018-02-18T23:12:03.779Z,16.65
2018-02-18T23:14:31.380Z,16.58
2018-02-18T23:16:59.769Z,17.45
2018-02-18T23:19:27.373Z,16.58
2018-02-18T23:21:55.012Z,18.33
2018-02-18T23:24:22.604Z,21.60
2018-02-18T23:26:50.968Z,16.40
2018-02-18T23:29:18.624Z,17.37
2018-02-18T23:31:46.252Z,20.02
2018-02-18T23:34:14.621Z,19.75
2018-02-18T23:36:43.028Z,19.70
2018-02-18T23:39:10.628Z,18.05
2018-02-18T23:41:38.985Z,18.55
2018-02-18T23:44:07.372Z,18.45
2018-02-18T23:46:35.008Z,18.95
2018-02-18T23:49:03.387Z,19.77
2018-02-18T23:51:30.988Z,21.65
2018-02-18T23:53:58.612Z,18.98
2018-02-18T23:56:26.213Z,19.50
2018-02-18T23:58:53.840Z,20.27
